createdAt,value
2019-02-21T00:02:08.874Z,14.52
2019-02-21T00:04:37.191Z,13.92
2019-02-21T00:07:05.526Z,14.35
2019-02-21T00:09:33.816Z,14.63
2019-02-21T00:12:02.146Z,14.66
2019-02-21T00:14:30.425Z,14.75
2019-02-21T00:16:58.900Z,14.27
2019-02-21T00:19:27.159Z,14.20
2019-02-21T00:21:55.489Z,14.17
2019-02-21T00:24:23.791Z,14.36
2019-02-21T00:26:52.060Z,14.23
2019-02-21T00:29:20.394Z,14.11
2019-02-21T00:31:48.679Z,14.33
2019-02-21T00:34:16.968Z,14.19
2019-02-21T00:36:45.543Z,13.98
2019-02-21T00:39:13.825Z,14.08
2019-02-21T00:41:42.143Z,13.87
2019-02-21T00:44:10.443Z,13.96
2019-02-21T00:46:38.743Z,13.85
2019-02-21T00:49:07.056Z,13.59
2019-02-21T00:51:35.334Z,13.31
2019-02-21T00:54:03.614Z,13.71
2019-02-21T00:56:31.910Z,14.06
2019-02-21T00:59:00.226Z,13.96
2019-02-21T01:01:28.669Z,14.61
2019-02-21T01:03:56.933Z,13.11
2019-02-21T01:06:25.208Z,13.75
2019-02-21T01:08:53.524Z,14.05
2019-02-21T01:11:21.808Z,13.07
2019-02-21T01:13:50.104Z,13.56
2019-02-21T01:16:18.387Z,13.67
2019-02-21T01:18:46.774Z,13.34
2019-02-21T01:21:19.278Z,13.60
2019-02-21T01:23:51.647Z,12.99
2019-02-21T01:26:24.386Z,12.58
2019-02-21T01:28:52.721Z,12.70
2019-02-21T01:31:22.679Z,12.86
2019-02-21T01:33:50.945Z,12.53
2019-02-21T01:36:22.336Z,12.40
2019-02-21T01:38:50.620Z,12.50
2019-02-21T01:41:21.145Z,12.10
2019-02-21T01:43:49.760Z,12.48
2019-02-21T01:46:21.523Z,12.25
2019-02-21T01:48:54.679Z,11.77
2019-02-21T01:51:26.249Z,12.32
2019-02-21T01:53:58.908Z,12.38
2019-02-21T01:56:29.272Z,12.34
2019-02-21T01:59:02.184Z,13.16
2019-02-21T02:01:30.873Z,12.33
2019-02-21T02:04:02.764Z,12.01
2019-02-21T02:06:51.251Z,13.08
2019-02-21T02:09:19.602Z,12.74
2019-02-21T02:11:51.605Z,13.30
2019-02-21T02:14:20.481Z,13.53
2019-02-21T02:16:48.777Z,12.55
2019-02-21T02:19:17.064Z,13.29
2019-02-21T02:21:45.357Z,13.60
2019-02-21T02:24:14.820Z,13.20
2019-02-21T02:26:43.841Z,12.66
2019-02-21T02:29:12.128Z,13.52
2019-02-21T02:31:40.663Z,12.95
2019-02-21T02:34:08.974Z,12.47
2019-02-21T02:36:37.376Z,12.74
2019-02-21T02:39:06.141Z,12.91
2019-02-21T02:41:34.406Z,12.75
2019-02-21T02:44:02.684Z,12.80
2019-02-21T02:46:30.995Z,12.24
2019-02-21T02:48:59.300Z,12.56
2019-02-21T02:51:27.590Z,13.19
2019-02-21T02:53:55.897Z,12.54
2019-02-21T02:56:24.172Z,12.84
2019-02-21T02:58:52.474Z,12.57
2019-02-21T03:01:20.818Z,12.68
2019-02-21T03:03:49.111Z,12.06
2019-02-21T03:06:17.408Z,12.74
2019-02-21T03:08:45.683Z,11.51
2019-02-21T03:11:13.965Z,11.65
2019-02-21T03:13:42.236Z,12.44
2019-02-21T03:16:10.560Z,12.81
2019-02-21T03:18:38.850Z,12.72
2019-02-21T03:21:07.148Z,12.60
2019-02-21T03:23:35.427Z,13.14
2019-02-21T03:26:03.758Z,13.57
2019-02-21T03:28:32.031Z,12.07
2019-02-21T03:31:00.339Z,11.43
2019-02-21T03:33:28.688Z,12.37
2019-02-21T03:35:57.521Z,11.75
2019-02-21T03:38:25.798Z,11.88
2019-02-21T03:40:54.058Z,11.75
2019-02-21T03:43:22.342Z,12.61
2019-02-21T03:45:50.626Z,11.83
2019-02-21T03:48:18.906Z,13.27
2019-02-21T03:50:47.211Z,13.25
2019-02-21T03:53:15.497Z,12.08
2019-02-21T03:55:43.797Z,12.95
2019-02-21T03:58:12.364Z,12.29
2019-02-21T04:00:40.655Z,13.10
2019-02-21T04:03:08.939Z,13.37
2019-02-21T04:05:37.213Z,12.35
2019-02-21T04:08:05.574Z,12.50
2019-02-21T04:10:33.865Z,13.41
2019-02-21T04:13:02.135Z,13.90
2019-02-21T04:15:30.582Z,12.85
2019-02-21T04:17:58.869Z,12.84
2019-02-21T04:20:27.153Z,12.64
2019-02-21T04:22:55.416Z,12.67
2019-02-21T04:25:23.810Z,12.90
2019-02-21T04:27:52.068Z,12.39
2019-02-21T04:30:20.364Z,12.68
2019-02-21T04:32:48.638Z,13.64
2019-02-21T04:35:16.925Z,13.62
2019-02-21T04:37:45.203Z,14.18
2019-02-21T04:40:13.470Z,13.53
2019-02-21T04:42:41.752Z,13.16
2019-02-21T04:45:10.079Z,12.56
2019-02-21T04:47:38.346Z,12.60
2019-02-21T04:50:06.995Z,11.65
2019-02-21T04:52:35.316Z,12.76
2019-02-21T04:55:03.887Z,13.24
2019-02-21T04:57:32.158Z,12.71
2019-02-21T05:00:00.459Z,12.46
2019-02-21T05:02:29.745Z,12.93
2019-02-21T05:04:58.061Z,12.83
2019-02-21T05:07:26.590Z,13.66
2019-02-21T05:09:58.247Z,13.69
2019-02-21T05:12:25.454Z,12.67
2019-02-21T05:14:53.739Z,12.51
2019-02-21T05:17:22.579Z,11.40
2019-02-21T05:19:50.858Z,12.14
2019-02-21T05:22:19.161Z,11.95
2019-02-21T05:24:47.441Z,11.34
2019-02-21T05:27:19.773Z,11.74
2019-02-21T05:29:48.067Z,11.77
2019-02-21T05:32:20.419Z,12.01
2019-02-21T05:34:52.815Z,11.51
2019-02-21T05:37:25.242Z,12.62
2019-02-21T05:39:55.153Z,11.93
2019-02-21T05:42:33.941Z,11.73
2019-02-21T05:45:10.973Z,11.66
2019-02-21T05:47:53.614Z,11.59
2019-02-21T05:50:26.250Z,11.16
2019-02-21T05:53:01.898Z,12.11
2019-02-21T05:55:43.615Z,11.85
2019-02-21T05:58:22.538Z,11.66
2019-02-21T06:01:08.589Z,12.24
2019-02-21T06:03:54.856Z,11.79
2019-02-21T06:06:41.132Z,11.98
2019-02-21T06:09:17.025Z,11.79
2019-02-21T06:11:46.969Z,11.72
2019-02-21T06:14:22.566Z,11.12
2019-02-21T06:16:58.394Z,11.52
2019-02-21T06:19:28.319Z,11.67
2019-02-21T06:22:09.729Z,11.80
2019-02-21T06:24:42.011Z,11.07
2019-02-21T06:27:26.756Z,11.49
2019-02-21T06:29:56.683Z,11.35
2019-02-21T06:32:24.954Z,11.91
2019-02-21T06:34:53.242Z,12.29
2019-02-21T06:37:21.524Z,11.93
2019-02-21T06:39:49.782Z,12.27
2019-02-21T06:42:18.086Z,11.75
2019-02-21T06:44:46.358Z,11.66
2019-02-21T06:47:15.753Z,12.56
2019-02-21T06:49:44.032Z,11.91
2019-02-21T06:52:12.312Z,12.40
2019-02-21T06:54:40.580Z,12.32
2019-02-21T06:57:08.908Z,11.74
2019-02-21T06:59:42.458Z,12.55
2019-02-21T07:02:07.208Z,13.06
2019-02-21T07:04:35.514Z,12.95
2019-02-21T07:07:03.791Z,12.16
2019-02-21T07:09:32.166Z,11.41
2019-02-21T07:12:00.476Z,12.83
2019-02-21T07:14:28.764Z,12.68
2019-02-21T07:16:57.024Z,11.43
2019-02-21T07:19:25.319Z,12.30
2019-02-21T07:21:53.594Z,12.29
2019-02-21T07:24:22.157Z,12.17
2019-02-21T07:26:50.448Z,11.80
2019-02-21T07:29:18.732Z,11.46
2019-02-21T07:31:49.299Z,12.55
2019-02-21T07:34:17.112Z,12.05
2019-02-21T07:36:45.412Z,12.50
2019-02-21T07:39:18.358Z,13.66
2019-02-21T07:41:43.733Z,13.02
2019-02-21T07:44:12.634Z,14.45
2019-02-21T07:46:40.949Z,13.16
2019-02-21T07:49:09.258Z,12.76
2019-02-21T07:51:37.583Z,11.62
2019-02-21T07:54:05.980Z,12.68
2019-02-21T07:56:41.546Z,12.81
2019-02-21T07:59:04.212Z,13.24
2019-02-21T08:01:32.494Z,12.84
2019-02-21T08:04:00.789Z,11.83
2019-02-21T08:06:29.075Z,11.61
2019-02-21T08:08:57.358Z,11.65
2019-02-21T08:11:25.656Z,12.22
2019-02-21T08:13:53.918Z,12.21
2019-02-21T08:16:22.209Z,12.29
2019-02-21T08:18:50.492Z,12.62
2019-02-21T08:21:18.791Z,12.43
2019-02-21T08:23:50.435Z,13.31
2019-02-21T08:26:19.885Z,12.71
2019-02-21T08:28:47.103Z,12.17
2019-02-21T08:31:15.568Z,12.02
2019-02-21T08:34:04.397Z,11.97
2019-02-21T08:36:32.806Z,12.67
2019-02-21T08:39:01.111Z,12.72
2019-02-21T08:41:29.387Z,12.76
2019-02-21T08:43:57.679Z,12.89
2019-02-21T08:46:25.964Z,12.61
2019-02-21T08:48:54.255Z,13.44
2019-02-21T08:51:22.523Z,13.03
2019-02-21T08:53:50.790Z,12.75
2019-02-21T08:56:19.072Z,13.15
2019-02-21T08:58:47.374Z,12.41
2019-02-21T09:01:15.651Z,12.86
2019-02-21T09:03:43.954Z,12.94
2019-02-21T09:06:12.219Z,13.28
2019-02-21T09:08:40.489Z,13.36
2019-02-21T09:11:08.784Z,12.84
2019-02-21T09:13:37.095Z,12.16
2019-02-21T09:16:05.389Z,13.31
2019-02-21T09:18:33.671Z,13.08
2019-02-21T09:21:01.938Z,13.06
2019-02-21T09:23:30.232Z,12.37
2019-02-21T09:25:58.519Z,13.67
2019-02-21T09:28:26.821Z,13.46
2019-02-21T09:30:55.108Z,13.21
2019-02-21T09:33:23.398Z,13.09
2019-02-21T09:35:51.678Z,13.84
2019-02-21T09:38:19.973Z,13.29
2019-02-21T09:40:48.251Z,13.86
2019-02-21T09:43:16.537Z,13.84
2019-02-21T09:45:44.820Z,13.52
2019-02-21T09:48:13.087Z,13.65
2019-02-21T09:50:41.384Z,13.90
2019-02-21T09:53:09.652Z,14.60
2019-02-21T09:55:38.055Z,14.88
2019-02-21T09:58:06.408Z,14.67
2019-02-21T10:00:35.982Z,14.29
2019-02-21T10:03:04.362Z,13.57
2019-02-21T10:05:32.726Z,14.24
2019-02-21T10:08:01.053Z,13.64
2019-02-21T10:10:29.328Z,13.89
2019-02-21T10:12:57.681Z,13.65
2019-02-21T10:15:25.956Z,13.60
2019-02-21T10:17:54.239Z,13.75
2019-02-21T10:20:22.879Z,13.31
2019-02-21T10:22:51.247Z,14.16
2019-02-21T10:25:23.322Z,13.70
2019-02-21T10:27:51.776Z,14.35
2019-02-21T10:30:21.779Z,13.75
2019-02-21T10:32:50.166Z,13.87
2019-02-21T10:35:18.467Z,14.89
2019-02-21T10:37:46.743Z,14.37
2019-02-21T10:40:15.958Z,13.78
2019-02-21T10:42:44.299Z,14.17
2019-02-21T10:45:20.909Z,14.13
2019-02-21T10:47:49.273Z,14.29
2019-02-21T10:50:19.016Z,13.74
2019-02-21T10:52:47.670Z,13.95
2019-02-21T10:55:16.924Z,14.71
2019-02-21T10:57:45.726Z,15.52
2019-02-21T11:00:20.210Z,14.62
2019-02-21T11:02:48.506Z,14.22
2019-02-21T11:05:16.815Z,14.19
2019-02-21T11:07:45.193Z,14.43
2019-02-21T11:10:19.460Z,14.30
2019-02-21T11:12:47.732Z,14.55
2019-02-21T11:15:18.428Z,15.23
2019-02-21T11:17:46.725Z,14.25
2019-02-21T11:20:17.045Z,15.03
2019-02-21T11:22:45.306Z,14.96
2019-02-21T11:25:13.674Z,15.14
2019-02-21T11:27:42.089Z,14.56
2019-02-21T11:30:15.673Z,14.70
2019-02-21T11:32:44.010Z,15.82
2019-02-21T11:35:12.358Z,15.93
2019-02-21T11:37:44.459Z,16.91
2019-02-21T11:43:16.005Z,14.88
2019-02-21T11:45:53.605Z,15.75
2019-02-21T11:48:14.346Z,15.73
2019-02-21T11:50:42.649Z,15.53
2019-02-21T11:53:10.980Z,15.92
2019-02-21T11:55:39.272Z,15.28
2019-02-21T11:58:07.567Z,14.69
2019-02-21T12:00:35.924Z,15.32
2019-02-21T12:03:08.549Z,15.33
2019-02-21T12:05:40.201Z,15.65
2019-02-21T12:08:08.574Z,15.54
2019-02-21T12:10:37.033Z,15.20
2019-02-21T12:13:05.399Z,14.73
2019-02-21T12:15:33.678Z,15.01
2019-02-21T12:18:01.955Z,15.21
2019-02-21T12:20:30.239Z,16.46
2019-02-21T12:22:58.514Z,15.80
2019-02-21T12:25:26.809Z,16.22
2019-02-21T12:27:55.086Z,16.23
2019-02-21T12:30:23.374Z,15.96
2019-02-21T12:32:51.634Z,15.92
2019-02-21T12:35:29.269Z,15.81
2019-02-21T12:37:49.921Z,16.49
2019-02-21T12:40:22.440Z,16.87
2019-02-21T12:42:50.704Z,16.90
2019-02-21T12:45:22.005Z,17.25
2019-02-21T12:47:53.571Z,18.41
2019-02-21T12:50:20.314Z,17.94
2019-02-21T12:52:48.628Z,16.63
2019-02-21T12:55:27.050Z,16.80
2019-02-21T12:57:46.903Z,15.91
2019-02-21T13:00:19.629Z,15.71
2019-02-21T13:02:47.962Z,15.42
2019-02-21T13:05:16.232Z,15.57
2019-02-21T13:07:44.524Z,16.22
2019-02-21T13:10:17.863Z,17.24
2019-02-21T13:12:46.153Z,17.08
2019-02-21T13:15:21.344Z,16.69
2019-02-21T13:18:01.779Z,16.45
2019-02-21T13:20:30.240Z,16.94
2019-02-21T13:22:58.541Z,17.16
2019-02-21T13:25:26.821Z,17.28
2019-02-21T13:27:55.105Z,16.73
2019-02-21T13:30:23.411Z,16.97
2019-02-21T13:32:51.682Z,16.90
2019-02-21T13:35:19.954Z,17.15
2019-02-21T13:37:48.228Z,17.74
2019-02-21T13:40:17.249Z,17.80
2019-02-21T13:42:45.534Z,18.20
2019-02-21T13:45:17.452Z,19.25
2019-02-21T13:47:45.575Z,19.09
2019-02-21T13:50:16.472Z,19.64
2019-02-21T13:52:44.814Z,19.33
2019-02-21T13:55:13.183Z,19.97
2019-02-21T13:57:41.532Z,18.97
2019-02-21T14:00:18.567Z,21.30
2019-02-21T14:02:46.851Z,20.20
2019-02-21T14:05:15.226Z,21.00
2019-02-21T14:07:43.534Z,20.93
2019-02-21T14:10:13.469Z,19.07
2019-02-21T14:12:41.831Z,21.45
2019-02-21T14:15:18.737Z,22.53
2019-02-21T14:17:47.080Z,21.90
2019-02-21T14:20:15.373Z,21.10
2019-02-21T14:22:43.710Z,19.37
2019-02-21T14:25:12.021Z,20.16
2019-02-21T14:27:40.298Z,20.65
2019-02-21T14:30:14.465Z,23.95
2019-02-21T14:32:42.740Z,22.33
2019-02-21T14:35:12.584Z,21.10
2019-02-21T14:37:40.854Z,22.20
2019-02-21T14:40:11.408Z,21.40
2019-02-21T14:42:40.283Z,22.72
2019-02-21T14:45:16.346Z,22.54
2019-02-21T14:47:44.627Z,24.08
2019-02-21T14:50:13.318Z,22.57
2019-02-21T14:52:41.617Z,23.27
2019-02-21T14:55:12.910Z,23.00
2019-02-21T14:57:41.489Z,23.43
2019-02-21T15:00:13.522Z,24.59
2019-02-21T15:02:41.818Z,24.81
2019-02-21T15:05:10.274Z,22.42
2019-02-21T15:07:38.482Z,22.35
2019-02-21T15:10:09.114Z,21.60
2019-02-21T15:12:37.408Z,21.12
2019-02-21T15:15:11.160Z,20.59
2019-02-21T15:17:39.458Z,20.13
2019-02-21T15:20:10.449Z,19.34
2019-02-21T15:22:38.756Z,18.67
2019-02-21T15:25:08.681Z,18.38
2019-02-21T15:27:37.003Z,19.02
2019-02-21T15:30:11.127Z,18.94
2019-02-21T15:32:39.397Z,18.86
2019-02-21T15:35:07.771Z,18.68
2019-02-21T15:37:36.112Z,19.47
2019-02-21T15:40:08.732Z,18.90
2019-02-21T15:42:36.453Z,18.30
2019-02-21T15:45:09.707Z,18.18
2019-02-21T15:47:37.915Z,19.21
2019-02-21T15:50:09.194Z,19.28
2019-02-21T15:52:37.498Z,18.81
2019-02-21T15:55:12.663Z,18.95
2019-02-21T15:57:39.188Z,19.00
2019-02-21T16:00:10.260Z,18.80
2019-02-21T16:02:38.554Z,18.59
2019-02-21T16:05:07.870Z,18.50
2019-02-21T16:07:36.142Z,18.18
2019-02-21T16:10:07.649Z,18.50
2019-02-21T16:12:36.128Z,18.30
2019-02-21T16:15:06.830Z,18.44
2019-02-21T16:17:37.075Z,18.38
2019-02-21T16:20:08.429Z,17.46
2019-02-21T16:22:36.896Z,17.96
2019-02-21T16:25:11.045Z,17.85
2019-02-21T16:27:39.378Z,17.68
2019-02-21T16:30:09.716Z,17.80
2019-02-21T16:32:38.002Z,17.66
2019-02-21T16:35:09.726Z,17.29
2019-02-21T16:37:39.651Z,17.96
2019-02-21T16:40:15.744Z,17.88
2019-02-21T16:42:44.081Z,17.95
2019-02-21T16:45:14.549Z,18.12
2019-02-21T16:47:42.908Z,18.43
2019-02-21T16:50:13.326Z,17.92
2019-02-21T16:52:41.634Z,17.62
2019-02-21T16:55:15.639Z,17.80
2019-02-21T16:57:43.961Z,17.67
2019-02-21T17:00:14.844Z,17.74
2019-02-21T17:02:43.131Z,17.47
2019-02-21T17:05:11.486Z,17.43
2019-02-21T17:07:39.796Z,17.30
2019-02-21T17:10:31.646Z,17.76
2019-02-21T17:12:59.941Z,17.58
2019-02-21T17:15:28.206Z,17.48
2019-02-21T17:17:56.587Z,17.11
2019-02-21T17:20:26.790Z,16.90
2019-02-21T17:22:55.133Z,16.87
2019-02-21T17:25:23.412Z,17.10
2019-02-21T17:27:51.689Z,16.94
2019-02-21T17:30:20.922Z,17.40
2019-02-21T17:32:49.259Z,17.19
2019-02-21T17:35:17.544Z,17.06
2019-02-21T17:37:45.904Z,17.82
2019-02-21T17:40:17.010Z,17.34
2019-02-21T17:42:45.385Z,17.61
2019-02-21T17:45:13.737Z,17.50
2019-02-21T17:47:42.007Z,17.65
2019-02-21T17:50:12.346Z,17.63
2019-02-21T17:52:40.648Z,17.57
2019-02-21T17:55:10.458Z,17.62
2019-02-21T17:57:38.822Z,17.11
2019-02-21T18:00:12.937Z,17.05
2019-02-21T18:02:41.207Z,16.99
2019-02-21T18:05:10.634Z,17.12
2019-02-21T18:07:38.916Z,16.98
2019-02-21T18:10:15.784Z,17.86
2019-02-21T18:12:44.060Z,17.43
2019-02-21T18:15:16.285Z,17.45
2019-02-21T18:17:44.536Z,17.25
2019-02-21T18:20:14.264Z,16.78
2019-02-21T18:22:42.567Z,17.59
2019-02-21T18:25:26.272Z,16.65
2019-02-21T18:27:54.610Z,16.98
2019-02-21T18:30:22.890Z,16.23
2019-02-21T18:32:51.173Z,16.76
2019-02-21T18:35:19.434Z,16.72
2019-02-21T18:37:48.073Z,18.04
2019-02-21T18:40:24.916Z,17.65
2019-02-21T18:42:53.201Z,17.80
2019-02-21T18:45:21.504Z,16.47
2019-02-21T18:47:49.849Z,16.81
2019-02-21T18:50:18.267Z,17.23
2019-02-21T18:52:46.569Z,17.27
2019-02-21T18:55:14.964Z,17.26
2019-02-21T18:57:43.265Z,16.71
2019-02-21T19:00:25.840Z,16.60
2019-02-21T19:02:54.245Z,17.25
2019-02-21T19:05:22.543Z,16.89
2019-02-21T19:08:00.383Z,17.00
2019-02-21T19:10:21.913Z,17.30
2019-02-21T19:12:50.197Z,16.46
2019-02-21T19:15:19.740Z,17.81
2019-02-21T19:17:48.097Z,17.32
2019-02-21T19:20:18.143Z,17.36
2019-02-21T19:22:46.405Z,16.79
2019-02-21T19:25:14.965Z,16.73
2019-02-21T19:27:43.267Z,17.31
2019-02-21T19:30:55.052Z,18.01
2019-02-21T19:33:23.429Z,17.38
2019-02-21T19:35:51.751Z,16.88
2019-02-21T19:38:20.090Z,16.73
2019-02-21T19:40:48.365Z,17.25
2019-02-21T19:43:16.671Z,16.95
2019-02-21T19:45:44.965Z,16.87
2019-02-21T19:48:13.268Z,17.31
2019-02-21T19:50:41.633Z,17.09
2019-02-21T19:53:09.946Z,16.69
2019-02-21T19:55:38.249Z,16.77
2019-02-21T19:58:06.709Z,16.40
2019-02-21T20:00:36.830Z,17.09
2019-02-21T20:03:05.326Z,16.53
2019-02-21T20:05:33.863Z,16.70
2019-02-21T20:08:08.664Z,17.25
2019-02-21T20:10:32.161Z,18.02
2019-02-21T20:13:02.222Z,16.74
2019-02-21T20:15:30.496Z,16.91
2019-02-21T20:17:58.828Z,16.64
2019-02-21T20:20:28.648Z,16.91
2019-02-21T20:22:56.927Z,17.06
2019-02-21T20:25:25.237Z,16.95
2019-02-21T20:27:53.513Z,16.81
2019-02-21T20:30:21.826Z,16.50
2019-02-21T20:32:50.081Z,17.33
2019-02-21T20:35:18.372Z,16.40
2019-02-21T20:37:46.648Z,16.88
2019-02-21T20:40:14.951Z,17.35
2019-02-21T20:42:43.216Z,16.37
2019-02-21T20:45:12.936Z,17.28
2019-02-21T20:47:41.406Z,17.55
2019-02-21T20:50:11.623Z,17.46
2019-02-21T20:52:39.983Z,17.09
2019-02-21T20:55:10.007Z,17.09
2019-02-21T20:57:38.290Z,18.01
2019-02-21T21:00:12.618Z,17.95
2019-02-21T21:02:40.957Z,17.63
2019-02-21T21:05:09.313Z,17.25
2019-02-21T21:07:37.651Z,17.83
2019-02-21T21:10:09.446Z,17.24
2019-02-21T21:12:37.873Z,17.26
2019-02-21T21:15:09.528Z,16.92
2019-02-21T21:17:37.679Z,18.21
2019-02-21T21:20:16.654Z,18.00
2019-02-21T21:22:38.827Z,18.02
2019-02-21T21:25:10.246Z,17.80
2019-02-21T21:27:38.810Z,17.75
2019-02-21T21:30:09.825Z,17.91
2019-02-21T21:32:38.132Z,17.95
2019-02-21T21:35:06.591Z,17.90
2019-02-21T21:37:34.888Z,18.47
2019-02-21T21:40:03.535Z,18.16
2019-02-21T21:42:31.852Z,18.11
2019-02-21T21:45:00.326Z,18.48
2019-02-21T21:47:28.671Z,16.99
2019-02-21T21:49:56.961Z,17.22
2019-02-21T21:52:25.292Z,17.62
2019-02-21T21:54:53.567Z,17.97
2019-02-21T21:57:21.862Z,18.28
2019-02-21T21:59:50.227Z,18.35
2019-02-21T22:02:18.499Z,17.59
2019-02-21T22:04:46.873Z,17.24
2019-02-21T22:07:16.835Z,16.86
2019-02-21T22:09:45.107Z,17.59
2019-02-21T22:12:13.397Z,17.07
2019-02-21T22:14:41.680Z,17.23
2019-02-21T22:17:09.958Z,17.00
2019-02-21T22:19:38.264Z,16.38
2019-02-21T22:22:06.555Z,18.05
2019-02-21T22:24:34.829Z,17.15
2019-02-21T22:27:03.104Z,17.19
2019-02-21T22:29:31.396Z,18.01
2019-02-21T22:31:59.755Z,18.64
2019-02-21T22:34:28.052Z,18.43
2019-02-21T22:36:56.326Z,18.57
2019-02-21T22:39:24.620Z,17.92
2019-02-21T22:41:52.882Z,17.10
2019-02-21T22:44:21.172Z,17.21
2019-02-21T22:46:49.447Z,16.82
2019-02-21T22:49:17.704Z,16.81
2019-02-21T22:51:45.994Z,16.65
2019-02-21T22:54:14.262Z,17.03
2019-02-21T22:56:42.825Z,16.68
2019-02-21T22:59:11.207Z,16.89
2019-02-21T23:01:39.553Z,16.59
2019-02-21T23:04:14.168Z,16.73
2019-02-21T23:06:54.663Z,16.92
2019-02-21T23:09:27.576Z,16.84
2019-02-21T23:11:54.325Z,16.42
2019-02-21T23:14:22.606Z,16.38
2019-02-21T23:16:50.872Z,16.13
2019-02-21T23:19:19.164Z,16.43
2019-02-21T23:21:47.452Z,16.00
2019-02-21T23:24:15.837Z,16.09
2019-02-21T23:26:44.112Z,16.43
2019-02-21T23:29:12.373Z,16.24
2019-02-21T23:31:40.736Z,16.24
2019-02-21T23:34:13.589Z,15.70
2019-02-21T23:36:41.872Z,16.34
2019-02-21T23:39:10.150Z,16.77
2019-02-21T23:41:38.428Z,16.58
2019-02-21T23:44:06.784Z,17.18
2019-02-21T23:46:35.068Z,17.36
2019-02-21T23:49:03.350Z,17.16
2019-02-21T23:51:31.644Z,17.38
2019-02-21T23:54:03.019Z,17.16
2019-02-21T23:56:29.953Z,16.63
2019-02-21T23:58:58.233Z,16.63
